Time;durP1;ratioP1;P1;durP2;ratioP2;P2;SDS_P1;SDS_P2;PMS_P1;PMS_P2;Temp;Humidity;BMP_temperature;BMP_pressure;BME280_temperature;BME280_humidity;BME280_pressure;Samples;Min_cycle;Max_cycle;Signal;HPM_P1;HPM_P2
2022/09/16 00:01:00;;;;;;;8.87;4.70;;;17.70;75.40;;;;;;4996503;28;20473;-75
2022/09/16 00:03:28;;;;;;;7.60;4.40;;;17.70;75.40;;;;;;4994622;28;21011;-75
2022/09/16 00:05:56;;;;;;;5.90;4.30;;;17.70;75.40;;;;;;4994535;28;20452;-75
2022/09/16 00:08:24;;;;;;;7.27;4.33;;;17.70;75.50;;;;;;4990023;28;20453;-75
2022/09/16 00:10:52;;;;;;;13.77;4.67;;;17.70;75.40;;;;;;4997738;28;21020;-75
2022/09/16 00:13:21;;;;;;;8.63;4.50;;;17.70;75.40;;;;;;4999023;28;20945;-75
2022/09/16 00:15:50;;;;;;;8.03;4.63;;;17.60;75.40;;;;;;4998335;28;20993;-75
2022/09/16 00:18:20;;;;;;;8.10;4.33;;;17.60;75.40;;;;;;4999321;28;20475;-75
2022/09/16 00:20:50;;;;;;;8.07;4.67;;;17.60;75.40;;;;;;5001255;28;20460;-75
2022/09/16 00:23:19;;;;;;;10.97;4.70;;;17.60;75.40;;;;;;4992012;28;20554;-75
2022/09/16 00:25:51;;;;;;;10.43;5.27;;;17.60;75.40;;;;;;4993862;28;20938;-75
2022/09/16 00:28:21;;;;;;;9.33;4.77;;;17.60;75.50;;;;;;4999808;28;20480;-75
2022/09/16 00:30:49;;;;;;;7.83;4.23;;;17.60;75.50;;;;;;5002538;28;20453;-75
2022/09/16 00:33:18;;;;;;;6.70;3.97;;;17.60;75.50;;;;;;4999115;28;20486;-74
2022/09/16 00:35:47;;;;;;;7.90;4.40;;;17.60;75.50;;;;;;5010318;28;20477;-75
2022/09/16 00:38:15;;;;;;;10.00;4.90;;;17.60;75.60;;;;;;4998419;28;20469;-75
2022/09/16 00:40:45;;;;;;;9.13;4.50;;;17.60;75.60;;;;;;5002554;28;20453;-75
2022/09/16 00:43:13;;;;;;;9.40;4.57;;;17.60;75.60;;;;;;4996819;28;20476;-75
2022/09/16 00:45:46;;;;;;;8.37;4.00;;;17.60;75.60;;;;;;4997342;28;20811;-75
2022/09/16 00:48:20;;;;;;;6.33;3.50;;;17.60;75.60;;;;;;4998415;28;20971;-75
2022/09/16 00:50:51;;;;;;;7.87;4.57;;;17.60;75.50;;;;;;4999384;28;20568;-75
2022/09/16 00:53:23;;;;;;;6.77;3.80;;;17.60;75.50;;;;;;5001682;28;20521;-75
2022/09/16 00:55:54;;;;;;;8.27;3.63;;;17.50;75.50;;;;;;5001800;28;20547;-75
2022/09/16 00:58:27;;;;;;;7.93;3.97;;;17.50;75.40;;;;;;5007497;28;20974;-75
2022/09/16 01:00:57;;;;;;;8.13;3.37;;;17.50;75.30;;;;;;5005256;28;20522;-75
2022/09/16 01:03:26;;;;;;;7.70;3.80;;;17.40;75.20;;;;;;4999088;28;20491;-75
2022/09/16 01:05:54;;;;;;;9.27;3.37;;;17.40;75.30;;;;;;5002773;28;20457;-75
2022/09/16 01:08:21;;;;;;;12.27;3.60;;;17.30;75.30;;;;;;5001632;28;21213;-75
2022/09/16 01:10:49;;;;;;;10.67;3.80;;;17.40;75.30;;;;;;5002591;28;20951;-75
2022/09/16 01:13:17;;;;;;;6.23;3.60;;;17.40;75.20;;;;;;4999559;28;20477;-75
2022/09/16 01:15:55;;;;;;;7.90;3.90;;;17.40;75.10;;;;;;4998217;28;20985;-75
2022/09/16 01:18:31;;;;;;;10.23;3.60;;;17.40;75.10;;;;;;5002608;28;21174;-75
2022/09/16 01:21:09;;;;;;;8.73;3.70;;;17.40;75.00;;;;;;5005696;28;20495;-75
2022/09/16 01:24:10;;;;;;;7.27;3.93;;;17.30;75.00;;;;;;5006338;28;20531;-75
2022/09/16 01:27:08;;;;;;;7.83;3.53;;;17.30;75.10;;;;;;5013075;28;20694;-74
2022/09/16 01:30:02;;;;;;;9.37;4.17;;;17.30;75.10;;;;;;4986978;28;20483;-75
2022/09/16 01:32:39;;;;;;;7.93;4.07;;;17.30;75.20;;;;;;5005140;28;20532;-75
2022/09/16 01:35:15;;;;;;;7.70;4.17;;;17.30;75.20;;;;;;4996384;28;20570;-75
2022/09/16 01:37:52;;;;;;;11.00;3.30;;;17.30;75.20;;;;;;5001685;28;21080;-74
2022/09/16 01:40:28;;;;;;;7.70;3.40;;;17.30;75.10;;;;;;5002845;28;20472;-75
2022/09/16 01:43:03;;;;;;;7.40;3.10;;;17.30;75.00;;;;;;5001975;28;20480;-75
2022/09/16 01:45:38;;;;;;;7.57;2.97;;;17.30;75.00;;;;;;4998160;28;20485;-75
2022/09/16 01:48:13;;;;;;;7.93;3.50;;;17.30;75.00;;;;;;4998516;28;20460;-75
2022/09/16 01:50:46;;;;;;;7.13;3.10;;;17.30;74.90;;;;;;5000684;28;21006;-75
2022/09/16 01:53:17;;;;;;;13.10;3.47;;;17.20;74.90;;;;;;4999234;28;20544;-75
2022/09/16 01:55:51;;;;;;;8.10;2.90;;;17.20;74.90;;;;;;4998755;28;20493;-75
2022/09/16 01:58:25;;;;;;;8.03;3.10;;;17.20;74.80;;;;;;4997518;28;20502;-75
2022/09/16 02:00:59;;;;;;;7.93;3.43;;;17.20;74.80;;;;;;5000040;28;20565;-75
2022/09/16 02:03:32;;;;;;;9.20;3.47;;;17.20;74.80;;;;;;4996029;28;20539;-75
2022/09/16 02:06:03;;;;;;;8.13;2.90;;;17.20;74.80;;;;;;4999576;28;20458;-75
2022/09/16 02:08:38;;;;;;;8.30;2.90;;;17.20;74.70;;;;;;5002734;28;20551;-75
2022/09/16 02:11:10;;;;;;;6.30;2.73;;;17.20;74.70;;;;;;5001045;28;20534;-75
2022/09/16 02:13:41;;;;;;;8.70;2.90;;;17.20;74.70;;;;;;4998999;28;20975;-75
2022/09/16 02:16:12;;;;;;;6.00;2.80;;;17.20;74.70;;;;;;5011334;28;20473;-75
2022/09/16 02:18:43;;;;;;;8.37;3.10;;;17.30;74.60;;;;;;4999641;28;20457;-75
2022/09/16 02:21:15;;;;;;;5.90;2.53;;;17.20;74.50;;;;;;5002258;28;20966;-75
2022/09/16 02:23:50;;;;;;;7.80;3.33;;;17.30;74.50;;;;;;4996042;28;20573;-75
2022/09/16 02:26:21;;;;;;;10.17;3.87;;;17.30;74.40;;;;;;5016245;28;20920;-75
2022/09/16 02:28:52;;;;;;;5.70;2.97;;;17.30;74.40;;;;;;4999043;28;20469;-75
2022/09/16 02:31:25;;;;;;;12.67;2.80;;;17.30;74.40;;;;;;4996769;28;20516;-75
2022/09/16 02:34:00;;;;;;;7.97;2.97;;;17.30;74.40;;;;;;4996179;28;20475;-76
2022/09/16 02:36:29;;;;;;;9.20;3.20;;;17.30;74.40;;;;;;4996306;28;20578;-75
2022/09/16 02:39:02;;;;;;;8.10;3.50;;;17.30;74.40;;;;;;5003084;28;20900;-75
2022/09/16 02:41:31;;;;;;;9.60;3.97;;;17.30;74.40;;;;;;4996471;28;20457;-75
2022/09/16 02:43:58;;;;;;;9.87;2.73;;;17.20;74.50;;;;;;4996062;28;20485;-75
2022/09/16 02:46:33;;;;;;;6.70;3.30;;;17.20;74.50;;;;;;5002407;28;20460;-75
2022/09/16 02:49:12;;;;;;;7.73;4.30;;;17.20;74.60;;;;;;4999858;28;20469;-75
2022/09/16 02:51:48;;;;;;;6.77;2.70;;;17.20;74.60;;;;;;4998367;28;20448;-76
2022/09/16 02:54:24;;;;;;;9.93;2.83;;;17.20;74.50;;;;;;5000826;28;20685;-75
2022/09/16 02:56:55;;;;;;;7.60;3.20;;;17.20;74.60;;;;;;4998361;28;20489;-76
2022/09/16 02:59:24;;;;;;;6.67;2.27;;;17.20;74.60;;;;;;4999635;28;20446;-75
2022/09/16 03:01:52;;;;;;;8.70;3.13;;;17.20;74.50;;;;;;4997215;28;20493;-76
2022/09/16 03:04:21;;;;;;;6.97;2.70;;;17.20;74.50;;;;;;4995691;28;20471;-74
2022/09/16 03:06:49;;;;;;;6.93;3.17;;;17.10;74.40;;;;;;4999204;28;20532;-75
2022/09/16 03:09:22;;;;;;;11.23;2.90;;;17.10;74.40;;;;;;4994351;28;20513;-75
2022/09/16 03:12:10;;;;;;;6.13;3.13;;;17.10;74.50;;;;;;5004724;28;20477;-75
2022/09/16 03:15:02;;;;;;;6.93;3.10;;;17.10;74.40;;;;;;5002949;28;20932;-75
2022/09/16 03:17:47;;;;;;;5.80;2.60;;;17.10;74.40;;;;;;4996746;28;20836;-75
2022/09/16 03:20:22;;;;;;;7.47;2.67;;;17.10;74.30;;;;;;4996462;28;20485;-75
2022/09/16 03:23:04;;;;;;;6.07;2.70;;;17.00;74.30;;;;;;4995188;28;20531;-74
2022/09/16 03:25:42;;;;;;;6.00;2.40;;;17.00;74.30;;;;;;5000865;28;20472;-75
2022/09/16 03:28:16;;;;;;;8.07;2.50;;;17.00;74.40;;;;;;4996906;28;20468;-75
2022/09/16 03:30:52;;;;;;;11.40;3.53;;;17.00;74.30;;;;;;5005600;28;20972;-75
2022/09/16 03:33:28;;;;;;;5.90;2.53;;;16.90;74.30;;;;;;5003790;28;20484;-75
2022/09/16 03:36:00;;;;;;;8.37;2.70;;;16.90;74.30;;;;;;5005909;28;21047;-75
2022/09/16 03:38:28;;;;;;;5.63;2.50;;;16.90;74.20;;;;;;5001708;28;20454;-75
2022/09/16 03:40:57;;;;;;;6.53;2.23;;;16.90;74.20;;;;;;5005811;28;20476;-75
2022/09/16 03:43:25;;;;;;;8.77;2.77;;;16.80;74.10;;;;;;5003915;28;20487;-75
2022/09/16 03:45:52;;;;;;;5.23;2.40;;;16.80;74.20;;;;;;5002845;28;20568;-75
2022/09/16 03:48:20;;;;;;;7.80;2.60;;;16.80;74.20;;;;;;5005394;28;20504;-75
2022/09/16 03:50:48;;;;;;;9.43;2.57;;;16.80;74.30;;;;;;5003824;28;20502;-75
2022/09/16 03:53:18;;;;;;;7.60;2.67;;;16.80;74.40;;;;;;4995320;28;21077;-75
2022/09/16 03:55:49;;;;;;;9.03;2.90;;;16.80;74.40;;;;;;4997032;28;21070;-75
2022/09/16 03:58:16;;;;;;;6.70;2.60;;;16.90;74.50;;;;;;4994494;28;20461;-75
2022/09/16 04:00:50;;;;;;;9.83;3.00;;;16.90;74.40;;;;;;4995873;28;20493;-75
2022/09/16 04:03:18;;;;;;;9.70;2.80;;;16.90;74.40;;;;;;4993871;28;20491;-75
2022/09/16 04:05:46;;;;;;;7.63;2.40;;;16.90;74.40;;;;;;4997130;28;20493;-75
2022/09/16 04:08:14;;;;;;;8.20;2.73;;;16.90;74.40;;;;;;4995138;28;20831;-75
2022/09/16 04:10:52;;;;;;;8.17;2.67;;;17.00;74.40;;;;;;4999796;28;20457;-75
2022/09/16 04:13:20;;;;;;;6.93;1.97;;;16.90;74.30;;;;;;4997167;28;20488;-75
2022/09/16 04:15:49;;;;;;;15.50;3.30;;;16.90;74.30;;;;;;4999973;28;20511;-75
2022/09/16 04:18:18;;;;;;;6.80;2.40;;;16.90;74.30;;;;;;5003408;28;20829;-74
2022/09/16 04:20:46;;;;;;;6.60;2.70;;;16.90;74.20;;;;;;4999076;28;20519;-75
2022/09/16 04:23:14;;;;;;;9.03;3.10;;;16.90;74.20;;;;;;4995480;28;20485;-75
2022/09/16 04:25:43;;;;;;;6.03;2.30;;;16.90;74.10;;;;;;5016955;28;20460;-75
2022/09/16 04:28:11;;;;;;;5.30;1.80;;;16.90;74.10;;;;;;4999974;28;20509;-74
2022/09/16 04:30:39;;;;;;;7.10;2.20;;;16.90;74.10;;;;;;5001606;28;20461;-75
2022/09/16 04:33:07;;;;;;;5.90;2.10;;;16.90;74.10;;;;;;5003452;28;20994;-75
2022/09/16 04:35:35;;;;;;;5.60;2.17;;;16.90;74.10;;;;;;5013660;28;20501;-74
2022/09/16 04:38:02;;;;;;;6.67;2.03;;;16.80;74.00;;;;;;4998239;28;20476;-75
2022/09/16 04:40:30;;;;;;;6.80;2.10;;;16.90;74.10;;;;;;5001276;28;20518;-75
2022/09/16 04:43:00;;;;;;;7.73;2.13;;;16.90;74.00;;;;;;5001906;28;20488;-75
2022/09/16 04:45:28;;;;;;;7.10;2.20;;;16.90;74.00;;;;;;5003917;28;20468;-75
2022/09/16 04:47:56;;;;;;;6.13;2.17;;;16.90;73.90;;;;;;5000792;28;20547;-75
2022/09/16 04:50:24;;;;;;;10.30;2.70;;;16.90;73.90;;;;;;5003567;28;20559;-74
2022/09/16 04:52:53;;;;;;;7.77;1.90;;;16.80;73.80;;;;;;5003346;28;21086;-75
2022/09/16 04:55:22;;;;;;;8.73;2.40;;;16.80;73.90;;;;;;5004336;28;20969;-75
2022/09/16 04:57:50;;;;;;;6.10;2.40;;;16.80;73.90;;;;;;5008524;28;20516;-75
2022/09/16 05:00:19;;;;;;;8.80;2.17;;;16.80;73.90;;;;;;5002823;28;20535;-75
2022/09/16 05:02:48;;;;;;;7.00;2.10;;;16.80;73.90;;;;;;5004305;28;20578;-75
2022/09/16 05:05:17;;;;;;;6.07;2.50;;;16.80;73.90;;;;;;5000825;28;20491;-75
2022/09/16 05:07:44;;;;;;;8.07;2.03;;;16.80;73.90;;;;;;5005769;28;20464;-75
2022/09/16 05:10:12;;;;;;;8.13;2.30;;;16.80;73.90;;;;;;5002191;28;20449;-75
2022/09/16 05:12:40;;;;;;;5.60;2.23;;;16.80;73.90;;;;;;4997901;28;20537;-75
2022/09/16 05:15:11;;;;;;;6.63;2.30;;;16.80;73.90;;;;;;4999351;28;20560;-75
2022/09/16 05:17:40;;;;;;;9.37;2.53;;;16.80;73.90;;;;;;5002109;28;20564;-75
2022/09/16 05:20:18;;;;;;;6.93;2.17;;;16.80;73.90;;;;;;5001271;28;20556;-75
2022/09/16 05:22:49;;;;;;;5.50;2.20;;;16.90;73.90;;;;;;5003869;28;20489;-75
2022/09/16 05:25:17;;;;;;;6.10;2.30;;;16.90;73.90;;;;;;4999038;28;20482;-75
2022/09/16 05:27:45;;;;;;;5.23;2.10;;;16.90;73.90;;;;;;5003966;28;20520;-75
2022/09/16 05:30:13;;;;;;;14.97;2.53;;;16.90;73.90;;;;;;5000051;28;20458;-75
2022/09/16 05:32:43;;;;;;;5.27;1.93;;;16.90;73.90;;;;;;4999023;28;20482;-75
2022/09/16 05:35:11;;;;;;;9.30;2.63;;;16.90;73.90;;;;;;5003396;28;20557;-75
2022/09/16 05:37:39;;;;;;;5.17;2.00;;;16.90;73.90;;;;;;4998182;28;20477;-75
2022/09/16 05:40:08;;;;;;;7.20;2.33;;;16.90;73.90;;;;;;5001378;28;20513;-75
2022/09/16 05:42:36;;;;;;;6.17;2.17;;;16.90;73.90;;;;;;5016611;28;20859;-75
2022/09/16 05:45:05;;;;;;;6.20;2.13;;;16.90;73.90;;;;;;5001674;28;20551;-75
2022/09/16 05:47:33;;;;;;;7.60;2.27;;;16.90;73.90;;;;;;5000348;28;20528;-75
2022/09/16 05:50:02;;;;;;;8.03;2.43;;;16.90;74.00;;;;;;5000789;28;20493;-75
2022/09/16 05:52:30;;;;;;;8.90;2.80;;;16.90;74.00;;;;;;4998545;28;20853;-75
2022/09/16 05:54:58;;;;;;;6.87;2.40;;;16.90;74.00;;;;;;4999019;28;20483;-75
2022/09/16 05:57:25;;;;;;;6.80;2.43;;;16.90;74.00;;;;;;4995138;28;20915;-75
2022/09/16 05:59:53;;;;;;;7.30;1.80;;;16.90;74.00;;;;;;5008164;28;20481;-76
2022/09/16 06:02:21;;;;;;;4.57;1.70;;;16.90;74.00;;;;;;4995361;28;20492;-76
2022/09/16 06:04:49;;;;;;;7.43;2.47;;;16.90;74.00;;;;;;5000701;28;20551;-76
2022/09/16 06:07:18;;;;;;;5.80;1.90;;;16.90;74.00;;;;;;5002020;28;21391;-76
2022/09/16 06:09:46;;;;;;;8.50;2.30;;;16.90;74.00;;;;;;4997928;28;20524;-76
2022/09/16 06:12:14;;;;;;;5.50;1.97;;;16.90;74.00;;;;;;4997258;28;20609;-76
2022/09/16 06:14:42;;;;;;;5.40;2.00;;;16.90;73.80;;;;;;4998544;28;20934;-76
2022/09/16 06:17:10;;;;;;;7.93;1.90;;;16.90;73.80;;;;;;4998651;28;20589;-76
2022/09/16 06:19:38;;;;;;;5.33;2.50;;;17.00;73.80;;;;;;5002676;28;20808;-77
2022/09/16 06:22:06;;;;;;;8.90;2.53;;;17.00;73.70;;;;;;5000271;28;20574;-76
2022/09/16 06:24:35;;;;;;;6.27;2.30;;;17.00;73.70;;;;;;4998235;28;20490;-76
2022/09/16 06:27:03;;;;;;;12.13;3.17;;;17.00;73.70;;;;;;5005109;28;20460;-76
2022/09/16 06:29:31;;;;;;;8.90;2.37;;;17.00;73.70;;;;;;4998548;28;21315;-76
2022/09/16 06:31:59;;;;;;;11.87;2.83;;;17.00;73.70;;;;;;4998038;28;20489;-76
2022/09/16 06:34:27;;;;;;;5.07;1.90;;;17.00;73.70;;;;;;5000635;28;20523;-76
2022/09/16 06:36:55;;;;;;;7.63;2.80;;;17.10;73.70;;;;;;4998881;28;20463;-76
2022/09/16 06:39:23;;;;;;;6.50;2.30;;;17.10;73.70;;;;;;5000355;28;20875;-76
2022/09/16 06:41:52;;;;;;;9.70;2.70;;;17.10;73.70;;;;;;4998937;28;20513;-76
2022/09/16 06:44:30;;;;;;;7.70;2.17;;;17.10;73.70;;;;;;5011853;28;20456;-75
2022/09/16 06:46:58;;;;;;;6.70;2.10;;;17.10;73.60;;;;;;5006856;28;20512;-76
2022/09/16 06:49:26;;;;;;;4.80;2.10;;;17.20;73.60;;;;;;4999679;28;20456;-75
2022/09/16 06:51:53;;;;;;;5.17;1.80;;;17.20;73.50;;;;;;5003015;28;20513;-75
2022/09/16 06:54:21;;;;;;;8.53;2.40;;;17.20;73.50;;;;;;5002715;28;20542;-75
2022/09/16 06:56:49;;;;;;;7.43;2.20;;;17.20;73.40;;;;;;5002981;28;20477;-75
2022/09/16 06:59:19;;;;;;;8.20;2.20;;;17.20;73.30;;;;;;5005742;28;20476;-75
2022/09/16 07:01:47;;;;;;;14.10;2.80;;;17.20;73.20;;;;;;5003808;28;20534;-75
2022/09/16 07:04:14;;;;;;;5.43;1.90;;;17.10;73.10;;;;;;5003746;28;20531;-76
2022/09/16 07:06:44;;;;;;;10.17;2.70;;;17.10;73.10;;;;;;4999550;28;20464;-75
2022/09/16 07:09:32;;;;;;;5.60;2.23;;;17.10;73.10;;;;;;4997429;28;20540;-75
2022/09/16 07:12:01;;;;;;;7.13;1.70;;;17.10;73.10;;;;;;4995605;28;20476;-75
2022/09/16 07:14:31;;;;;;;6.43;1.97;;;17.10;73.10;;;;;;5000687;28;20453;-76
2022/09/16 07:16:59;;;;;;;6.00;2.27;;;17.10;73.10;;;;;;4998533;28;20501;-76
2022/09/16 07:19:28;;;;;;;6.90;1.90;;;17.10;73.10;;;;;;4999664;28;20487;-75
2022/09/16 07:21:56;;;;;;;6.80;1.90;;;17.10;73.00;;;;;;5000592;28;20479;-75
2022/09/16 07:24:23;;;;;;;9.27;2.43;;;17.10;72.90;;;;;;5001435;28;20477;-75
2022/09/16 07:26:51;;;;;;;9.20;1.80;;;17.10;72.90;;;;;;5005206;28;20460;-76
2022/09/16 07:29:20;;;;;;;7.50;2.23;;;17.10;72.90;;;;;;4999628;28;20457;-75
2022/09/16 07:31:50;;;;;;;6.70;2.33;;;17.10;72.80;;;;;;5001509;28;20531;-75
2022/09/16 07:34:18;;;;;;;8.23;3.10;;;17.10;72.80;;;;;;4996069;28;20500;-76
2022/09/16 07:36:48;;;;;;;7.00;2.30;;;17.10;72.80;;;;;;4997960;28;20462;-75
2022/09/16 07:39:18;;;;;;;7.63;1.77;;;17.10;72.70;;;;;;5003169;28;20580;-75
2022/09/16 07:41:47;;;;;;;15.10;1.90;;;17.10;72.70;;;;;;5005441;28;20447;-75
2022/09/16 07:44:18;;;;;;;8.33;1.97;;;17.20;72.40;;;;;;5001339;28;20457;-75
2022/09/16 07:46:46;;;;;;;6.10;1.90;;;17.20;72.00;;;;;;5000665;28;20462;-75
2022/09/16 07:49:16;;;;;;;8.87;2.27;;;17.20;71.90;;;;;;4995987;28;20832;-76
2022/09/16 07:51:44;;;;;;;5.00;2.30;;;17.20;72.00;;;;;;4999836;28;20755;-75
2022/09/16 07:54:14;;;;;;;4.23;1.73;;;17.20;72.00;;;;;;4994078;28;20453;-75
2022/09/16 07:56:44;;;;;;;5.30;1.90;;;17.20;72.00;;;;;;4996903;28;20457;-76
2022/09/16 07:59:14;;;;;;;7.53;2.20;;;17.20;72.00;;;;;;5000789;28;20486;-76
2022/09/16 08:01:46;;;;;;;10.13;2.10;;;17.30;71.90;;;;;;5003835;28;20465;-76
2022/09/16 08:04:15;;;;;;;4.47;1.80;;;17.30;71.70;;;;;;4998070;28;20496;-76
2022/09/16 08:06:43;;;;;;;5.40;1.83;;;17.30;71.70;;;;;;5000983;28;20501;-76
2022/09/16 08:09:11;;;;;;;7.37;2.13;;;17.30;71.60;;;;;;5003433;28;20948;-76
2022/09/16 08:12:01;;;;;;;6.37;2.27;;;17.40;71.60;;;;;;4996289;28;20519;-75
2022/09/16 08:14:29;;;;;;;6.00;2.07;;;17.40;71.50;;;;;;4995356;28;20461;-76
2022/09/16 08:16:57;;;;;;;6.40;1.70;;;17.40;71.50;;;;;;4998892;28;20503;-76
2022/09/16 08:19:27;;;;;;;5.77;2.00;;;17.50;71.50;;;;;;4999917;28;20476;-77
2022/09/16 08:21:55;;;;;;;7.33;2.10;;;17.50;71.50;;;;;;4995974;28;20574;-75
2022/09/16 08:24:22;;;;;;;6.60;2.23;;;17.60;71.40;;;;;;4997609;28;20465;-76
2022/09/16 08:26:50;;;;;;;6.00;1.80;;;17.70;71.30;;;;;;4999960;28;20453;-76
2022/09/16 08:29:21;;;;;;;6.50;1.90;;;17.70;71.20;;;;;;5000140;28;20455;-76
2022/09/16 08:31:49;;;;;;;5.77;2.20;;;17.70;71.20;;;;;;4995112;28;20461;-77
2022/09/16 08:34:17;;;;;;;5.20;2.20;;;17.80;71.00;;;;;;4992989;28;20512;-76
2022/09/16 08:36:46;;;;;;;7.23;2.20;;;17.80;70.90;;;;;;4995572;28;20453;-76
2022/09/16 08:39:14;;;;;;;8.47;2.47;;;17.80;70.80;;;;;;5005681;28;20565;-75
2022/09/16 08:42:03;;;;;;;7.50;2.20;;;17.80;70.80;;;;;;5003044;28;20452;-75
2022/09/16 08:44:40;;;;;;;10.00;2.40;;;17.80;70.80;;;;;;4989246;28;20474;-75
2022/09/16 08:47:21;;;;;;;4.73;1.67;;;17.80;70.50;;;;;;5001362;28;20491;-76
2022/09/16 08:49:51;;;;;;;6.33;2.10;;;17.80;70.40;;;;;;4999504;28;20495;-76
2022/09/16 08:52:28;;;;;;;8.57;2.30;;;17.80;70.40;;;;;;4995530;28;20514;-76
2022/09/16 08:54:59;;;;;;;7.13;2.80;;;17.70;70.30;;;;;;4997360;28;20456;-76
2022/09/16 08:57:30;;;;;;;5.80;2.77;;;17.70;70.40;;;;;;4994749;28;20516;-75
2022/09/16 09:00:01;;;;;;;7.60;2.43;;;17.70;70.30;;;;;;4998188;28;20479;-76
2022/09/16 09:02:38;;;;;;;9.80;2.40;;;17.70;70.30;;;;;;4995729;28;20546;-76
2022/09/16 09:05:16;;;;;;;8.50;2.70;;;17.60;70.30;;;;;;4997034;28;20466;-75
2022/09/16 09:07:57;;;;;;;6.27;2.37;;;17.60;70.30;;;;;;4999387;28;20961;-75
2022/09/16 09:10:30;;;;;;;6.77;2.07;;;17.70;70.30;;;;;;4997204;28;20593;-75
2022/09/16 09:13:04;;;;;;;6.10;2.30;;;17.70;70.20;;;;;;4998860;28;20534;-75
2022/09/16 09:15:41;;;;;;;6.90;2.40;;;17.70;70.00;;;;;;5001448;28;20542;-75
2022/09/16 09:18:24;;;;;;;9.30;2.37;;;17.60;70.00;;;;;;5002215;28;20492;-75
2022/09/16 09:21:04;;;;;;;5.40;2.03;;;17.60;69.90;;;;;;5002303;28;20515;-75
2022/09/16 09:23:49;;;;;;;8.23;1.97;;;17.60;69.80;;;;;;5005225;28;21101;-75
2022/09/16 09:26:21;;;;;;;9.23;2.30;;;17.60;69.70;;;;;;4999343;28;20469;-75
2022/09/16 09:29:07;;;;;;;8.93;2.33;;;17.60;69.70;;;;;;5001149;28;20457;-75
2022/09/16 09:31:47;;;;;;;7.80;2.53;;;17.60;69.80;;;;;;5015357;28;21033;-75
2022/09/16 09:34:31;;;;;;;5.20;1.87;;;17.70;69.80;;;;;;5004446;28;20494;-76
2022/09/16 09:37:19;;;;;;;6.67;2.20;;;17.70;69.90;;;;;;5001414;28;20557;-76
2022/09/16 09:40:00;;;;;;;10.93;1.50;;;17.70;69.60;;;;;;4996117;28;21032;-75
2022/09/16 09:42:31;;;;;;;5.33;1.80;;;17.70;69.30;;;;;;4999366;28;20850;-76
2022/09/16 09:45:03;;;;;;;5.83;1.80;;;17.80;69.30;;;;;;5001189;28;20500;-76
2022/09/16 09:47:36;;;;;;;10.63;1.97;;;17.80;69.20;;;;;;4998263;28;21032;-76
2022/09/16 09:50:15;;;;;;;7.10;1.90;;;17.70;69.00;;;;;;4999755;28;20464;-76
2022/09/16 09:52:50;;;;;;;7.93;1.77;;;17.70;68.90;;;;;;5002173;28;20519;-77
2022/09/16 09:55:23;;;;;;;5.10;1.60;;;17.70;68.80;;;;;;5004313;28;20457;-76
2022/09/16 09:58:02;;;;;;;6.77;1.60;;;17.70;68.80;;;;;;5009011;28;20872;-76
2022/09/16 10:00:30;;;;;;;9.97;1.63;;;17.70;68.80;;;;;;5003678;28;20496;-77
2022/09/16 10:03:06;;;;;;;6.73;1.83;;;17.80;68.70;;;;;;5005268;28;20923;-76
2022/09/16 10:05:34;;;;;;;6.27;1.70;;;17.80;68.40;;;;;;5000660;28;20520;-76
2022/09/16 10:08:07;;;;;;;4.10;1.30;;;17.80;68.40;;;;;;5003957;28;20500;-76
2022/09/16 10:10:50;;;;;;;7.00;1.90;;;17.80;68.40;;;;;;5000821;28;20542;-76
2022/09/16 10:13:19;;;;;;;6.70;1.83;;;17.80;68.40;;;;;;5006335;28;20492;-74
2022/09/16 10:15:48;;;;;;;7.43;2.03;;;17.90;68.50;;;;;;5011671;28;20527;-75
2022/09/16 10:18:26;;;;;;;5.73;1.73;;;17.90;68.50;;;;;;5008070;28;20468;-74
2022/09/16 10:21:03;;;;;;;6.10;1.53;;;17.90;68.10;;;;;;5007370;28;20492;-75
2022/09/16 10:23:31;;;;;;;8.40;1.97;;;17.90;68.40;;;;;;5009027;28;20485;-74
2022/09/16 10:26:21;;;;;;;8.20;1.77;;;18.00;68.30;;;;;;5006350;28;20504;-74
2022/09/16 10:28:58;;;;;;;9.33;1.60;;;18.10;68.20;;;;;;5005848;28;20822;-74
2022/09/16 10:31:29;;;;;;;6.13;1.70;;;18.10;67.90;;;;;;5002820;28;20492;-74
2022/09/16 10:34:02;;;;;;;6.03;1.60;;;18.10;67.80;;;;;;5000127;28;20464;-74
2022/09/16 10:36:34;;;;;;;7.77;1.60;;;18.10;67.70;;;;;;5001058;28;20460;-74
2022/09/16 10:39:03;;;;;;;5.00;1.73;;;18.10;67.60;;;;;;4998190;28;20459;-74
2022/09/16 10:41:41;;;;;;;4.97;2.00;;;18.10;67.40;;;;;;4996287;28;20496;-75
2022/09/16 10:44:17;;;;;;;6.97;1.90;;;18.00;67.20;;;;;;4996322;28;20549;-74
2022/09/16 10:46:54;;;;;;;6.93;1.70;;;18.00;67.30;;;;;;5000896;28;20480;-74
2022/09/16 10:49:26;;;;;;;4.73;1.47;;;18.10;67.10;;;;;;5000778;28;20574;-75
2022/09/16 10:51:53;;;;;;;8.63;2.07;;;18.10;66.80;;;;;;4999169;28;20986;-75
2022/09/16 10:54:27;;;;;;;4.70;1.60;;;18.10;66.80;;;;;;5000743;28;20490;-75
2022/09/16 10:56:56;;;;;;;6.20;1.63;;;18.10;66.70;;;;;;4999979;28;20479;-75
2022/09/16 10:59:24;;;;;;;4.20;1.27;;;18.20;66.40;;;;;;5003918;28;20497;-74
2022/09/16 11:02:04;;;;;;;5.80;1.50;;;18.20;66.50;;;;;;4996016;28;20481;-75
2022/09/16 11:04:58;;;;;;;4.33;1.43;;;18.20;66.50;;;;;;4998123;28;20453;-75
2022/09/16 11:07:36;;;;;;;5.80;1.50;;;18.30;66.50;;;;;;4995697;28;20561;-75
2022/09/16 11:10:14;;;;;;;5.43;1.57;;;18.30;66.20;;;;;;4995929;28;20891;-74
2022/09/16 11:13:08;;;;;;;4.43;1.70;;;18.40;65.90;;;;;;4999862;28;20465;-73
2022/09/16 11:15:50;;;;;;;7.13;1.53;;;18.40;65.70;;;;;;4997421;28;20461;-73
2022/09/16 11:18:29;;;;;;;4.47;1.40;;;18.40;65.80;;;;;;5000986;28;20560;-73
2022/09/16 11:21:38;;;;;;;6.13;1.70;;;18.50;65.70;;;;;;4999432;28;20969;-73
2022/09/16 11:24:20;;;;;;;5.33;1.50;;;18.60;65.20;;;;;;4968539;28;20566;-74
2022/09/16 11:26:56;;;;;;;5.20;1.60;;;18.60;64.90;;;;;;5002824;28;20546;-75
2022/09/16 11:29:50;;;;;;;8.13;1.40;;;18.60;65.00;;;;;;4998032;28;20452;-74
2022/09/16 11:32:28;;;;;;;6.80;1.80;;;18.60;64.10;;;;;;4998511;28;20546;-75
2022/09/16 11:35:19;;;;;;;5.67;1.57;;;18.60;64.80;;;;;;5006276;28;20457;-74
2022/09/16 11:37:54;;;;;;;4.80;1.60;;;18.70;64.60;;;;;;5006001;28;20461;-74
2022/09/16 11:40:30;;;;;;;5.10;1.67;;;18.80;64.10;;;;;;5005128;28;20870;-74
2022/09/16 11:43:20;;;;;;;5.83;1.77;;;18.80;64.40;;;;;;5006830;28;20486;-74
2022/09/16 11:45:57;;;;;;;6.07;1.60;;;18.80;64.10;;;;;;5000221;28;20460;-74
2022/09/16 11:48:38;;;;;;;9.30;1.60;;;18.80;63.90;;;;;;4999223;28;20515;-74
2022/09/16 11:51:18;;;;;;;5.63;1.70;;;18.70;63.80;;;;;;5004139;28;21032;-74
2022/09/16 11:54:00;;;;;;;5.97;1.47;;;18.70;63.90;;;;;;4997415;28;20525;-75
2022/09/16 11:56:37;;;;;;;6.70;1.30;;;18.70;63.90;;;;;;5001639;28;20498;-74
2022/09/16 11:59:13;;;;;;;11.00;1.57;;;18.70;64.10;;;;;;5000695;28;21028;-75
2022/09/16 12:01:45;;;;;;;7.10;1.80;;;18.70;64.30;;;;;;4994729;28;20490;-75
2022/09/16 12:04:21;;;;;;;5.70;1.27;;;18.70;63.80;;;;;;4991132;28;20497;-75
2022/09/16 12:06:59;;;;;;;6.80;1.63;;;18.60;63.90;;;;;;4997112;28;20452;-75
2022/09/16 12:09:39;;;;;;;4.57;1.40;;;18.60;64.00;;;;;;4995870;28;20460;-72
2022/09/16 12:12:13;;;;;;;7.87;1.93;;;18.60;64.00;;;;;;4998079;28;20480;-73
2022/09/16 12:14:43;;;;;;;7.33;1.40;;;18.60;64.00;;;;;;4999063;28;20489;-72
2022/09/16 12:17:17;;;;;;;6.03;1.57;;;18.60;64.00;;;;;;4993076;28;20877;-73
2022/09/16 12:19:51;;;;;;;7.10;1.37;;;18.60;64.20;;;;;;5000023;28;20450;-73
2022/09/16 12:22:22;;;;;;;4.23;1.30;;;18.70;64.20;;;;;;4999377;28;21048;-72
2022/09/16 12:24:58;;;;;;;5.60;1.70;;;18.70;64.20;;;;;;4999209;28;20462;-73
2022/09/16 12:27:37;;;;;;;4.70;1.13;;;18.80;64.10;;;;;;4995712;28;20448;-73
2022/09/16 12:30:14;;;;;;;4.67;0.93;;;18.80;63.70;;;;;;4999197;28;20468;-73
2022/09/16 12:32:50;;;;;;;6.47;1.50;;;18.80;63.80;;;;;;4997008;28;20519;-73
2022/09/16 12:35:23;;;;;;;4.70;1.00;;;18.90;63.50;;;;;;4991822;28;20512;-73
2022/09/16 12:37:54;;;;;;;4.27;1.33;;;18.90;63.30;;;;;;4998324;28;20454;-73
2022/09/16 12:40:24;;;;;;;6.63;1.30;;;18.80;63.40;;;;;;4999034;28;20545;-73
2022/09/16 12:43:21;;;;;;;4.60;1.00;;;18.80;63.40;;;;;;4999392;28;20488;-73
2022/09/16 12:46:12;;;;;;;5.10;1.37;;;18.90;63.20;;;;;;5014288;28;20465;-73
2022/09/16 12:49:09;;;;;;;4.73;1.13;;;18.80;63.30;;;;;;5002737;28;20638;-73
2022/09/16 12:52:16;;;;;;;5.60;1.37;;;18.80;63.50;;;;;;4999421;28;20473;-73
2022/09/16 12:55:05;;;;;;;4.00;0.83;;;18.80;63.50;;;;;;4989994;28;20469;-73
2022/09/16 12:57:48;;;;;;;7.00;1.43;;;18.80;63.40;;;;;;5000283;28;20452;-73
2022/09/16 13:00:20;;;;;;;4.60;1.10;;;18.90;62.90;;;;;;4994042;28;20487;-73
2022/09/16 13:02:52;;;;;;;5.60;1.30;;;18.90;63.10;;;;;;4997990;28;20543;-73
2022/09/16 13:05:26;;;;;;;6.53;1.10;;;18.90;63.00;;;;;;5005771;28;20858;-73
2022/09/16 13:08:04;;;;;;;5.53;0.93;;;18.90;63.20;;;;;;5012769;28;20465;-73
2022/09/16 13:10:34;;;;;;;3.80;1.30;;;19.00;63.30;;;;;;5014862;28;20474;-73
2022/09/16 13:13:32;;;;;;;3.97;1.00;;;19.10;63.20;;;;;;5011585;28;20998;-73
2022/09/16 13:16:03;;;;;;;7.67;1.00;;;19.10;63.10;;;;;;5016086;28;20465;-73